Stonington, CT

9:46 AM EDT on April 21, 2015 (GMT -0400)
Block Island State | | Change Station
CLOSE
Current Station
Airport
Location: Block Island,
Elevation: 108 ft
Nearby Weather Stations

Elev 108 ft 41.17 °N, 71.58 °W | Updated 11 minutes ago

Fog
Fog
52 °F
Feels Like 52 °F
N
13
Wind Variable Wind from SSW

Today
High -- | Low -- °F
--% Chance of Precip.
Yesterday
High -- | Low -- °F
Precip. -- in
5:59 AM 7:34 PM
Waxing Crescent, 10% visible
Pressure 29.57 in
Visibility 0.2 miles
Clouds Overcast 200 ft
Dew Point 48 °F
Humidity 88%
Rainfall 0.16 in
Snow Depth Not available.
UV 2 out of 12
Pollen 7.60 out of 12
Air Quality Not available.
Flu Activity Widespread
METAR KBID 211335Z AUTO 21011KT 1/4SM OVC002 11/09 A2957 RMK AO1

More Conditions Fewer Conditions

Pressure 29.57 in
Visibility 0.2 miles
Clouds Overcast 200 ft
Dew Point 48 °F
Humidity 88%
Rainfall 0.16 in
Snow Depth Not available.
UV 2 out of 12
Pollen 7.60 out of 12
Air Quality Not available.
Flu Activity Widespread
METAR KBID 211335Z AUTO 21011KT 1/4SM OVC002 11/09 A2957 RMK AO1

More Conditions Fewer Conditions

10-Day Weather Forecast

Almanac

Astronomy

Apr. 21, 2015 Rise Set
Actual Time
Civil Twilight
Nautical Twilight
Astronomical Twilight
Moon
Length of Visible Light
Length of Day
Tomorrow will be .
, % of the Moon is Illuminated

Today's Extremes

State Highs State Lows

Community

WunderPhotos

Upload Photos

1,815,383 photos uploaded!

WunderBlogs® & News

Nearby

Air Quality

  Air Quality AQ Index Pollutant
Not available.

Snow Depth

Station Depth Elevation

Earthquake Activity

City Distance Mag. Time & Date
Minimum magnitude displayed is 2.5.

Coastal Water Temperatures

Place Temperature

Stations

Nearby Weather Stations

Station Location Temp. Windchill Dew Point Humidity Wind Precip. Elev Updated Type